sensor_id;sensor_type;location;lat;lon;timestamp;temperature;humidity
4183;DHT22;2105;52.300;9.182;2023-02-03T00:02:00;7.80;99.90
4183;DHT22;2105;52.300;9.182;2023-02-03T00:04:27;7.80;99.90
4183;DHT22;2105;52.300;9.182;2023-02-03T00:06:53;7.80;99.90
4183;DHT22;2105;52.300;9.182;2023-02-03T00:09:21;7.80;99.90
4183;DHT22;2105;52.300;9.182;2023-02-03T00:11:48;7.80;99.90
4183;DHT22;2105;52.300;9.182;2023-02-03T00:14:15;7.80;99.90
4183;DHT22;2105;52.300;9.182;2023-02-03T00:16:41;7.80;99.90
4183;DHT22;2105;52.300;9.182;2023-02-03T00:19:08;7.80;99.90
4183;DHT22;2105;52.300;9.182;2023-02-03T00:21:35;7.80;99.90
4183;DHT22;2105;52.300;9.182;2023-02-03T00:24:01;7.90;99.90
4183;DHT22;2105;52.300;9.182;2023-02-03T00:26:29;7.90;99.90
4183;DHT22;2105;52.300;9.182;2023-02-03T00:28:58;7.90;99.90
4183;DHT22;2105;52.300;9.182;2023-02-03T00:31:24;7.90;99.90
4183;DHT22;2105;52.300;9.182;2023-02-03T00:33:55;7.90;99.90
4183;DHT22;2105;52.300;9.182;2023-02-03T00:36:22;7.90;99.90
4183;DHT22;2105;52.300;9.182;2023-02-03T00:38:49;7.90;99.90
4183;DHT22;2105;52.300;9.182;2023-02-03T00:41:16;7.90;99.90
4183;DHT22;2105;52.300;9.182;2023-02-03T00:43:44;7.90;99.90
4183;DHT22;2105;52.300;9.182;2023-02-03T00:46:11;7.90;99.90
4183;DHT22;2105;52.300;9.182;2023-02-03T00:48:38;7.90;99.90
4183;DHT22;2105;52.300;9.182;2023-02-03T00:51:05;7.90;99.90
4183;DHT22;2105;52.300;9.182;2023-02-03T00:53:32;7.90;99.90
4183;DHT22;2105;52.300;9.182;2023-02-03T00:55:58;7.90;99.90
4183;DHT22;2105;52.300;9.182;2023-02-03T00:58:25;7.90;99.90
4183;DHT22;2105;52.300;9.182;2023-02-03T01:00:54;7.90;99.90
4183;DHT22;2105;52.300;9.182;2023-02-03T01:03:21;7.90;99.90
4183;DHT22;2105;52.300;9.182;2023-02-03T01:05:48;7.90;99.90
4183;DHT22;2105;52.300;9.182;2023-02-03T01:08:15;7.90;99.90
4183;DHT22;2105;52.300;9.182;2023-02-03T01:10:41;7.90;99.90
4183;DHT22;2105;52.300;9.182;2023-02-03T01:13:08;7.90;99.90
4183;DHT22;2105;52.300;9.182;2023-02-03T01:15:35;7.90;99.90
4183;DHT22;2105;52.300;9.182;2023-02-03T01:18:03;8.00;99.90
4183;DHT22;2105;52.300;9.182;2023-02-03T01:20:29;8.00;99.90
4183;DHT22;2105;52.300;9.182;2023-02-03T01:22:56;8.00;99.90
4183;DHT22;2105;52.300;9.182;2023-02-03T01:25:23;8.00;99.90
4183;DHT22;2105;52.300;9.182;2023-02-03T01:27:49;8.00;99.90
4183;DHT22;2105;52.300;9.182;2023-02-03T01:30:16;8.00;99.90
4183;DHT22;2105;52.300;9.182;2023-02-03T01:32:43;8.00;99.90
4183;DHT22;2105;52.300;9.182;2023-02-03T01:35:11;8.00;99.90
4183;DHT22;2105;52.300;9.182;2023-02-03T01:37:38;8.00;99.90
4183;DHT22;2105;52.300;9.182;2023-02-03T01:40:06;8.00;99.90
4183;DHT22;2105;52.300;9.182;2023-02-03T01:42:33;8.00;99.90
4183;DHT22;2105;52.300;9.182;2023-02-03T01:44:59;8.00;99.90
4183;DHT22;2105;52.300;9.182;2023-02-03T01:47:29;8.00;99.90
4183;DHT22;2105;52.300;9.182;2023-02-03T01:50:03;8.00;99.90
4183;DHT22;2105;52.300;9.182;2023-02-03T01:52:33;8.10;99.90
4183;DHT22;2105;52.300;9.182;2023-02-03T01:55:03;8.10;99.90
4183;DHT22;2105;52.300;9.182;2023-02-03T01:57:33;8.10;99.90
4183;DHT22;2105;52.300;9.182;2023-02-03T02:00:03;8.10;99.90
4183;DHT22;2105;52.300;9.182;2023-02-03T02:02:31;8.10;99.90
4183;DHT22;2105;52.300;9.182;2023-02-03T02:05:02;8.10;99.90
4183;DHT22;2105;52.300;9.182;2023-02-03T02:07:30;8.10;99.90
4183;DHT22;2105;52.300;9.182;2023-02-03T02:09:59;8.10;99.90
4183;DHT22;2105;52.300;9.182;2023-02-03T02:12:26;8.10;99.90
4183;DHT22;2105;52.300;9.182;2023-02-03T02:14:53;8.10;99.90
4183;DHT22;2105;52.300;9.182;2023-02-03T02:17:35;8.10;99.90
4183;DHT22;2105;52.300;9.182;2023-02-03T02:20:25;8.10;99.90
4183;DHT22;2105;52.300;9.182;2023-02-03T02:26:23;8.10;99.90
4183;DHT22;2105;52.300;9.182;2023-02-03T02:29:17;8.10;99.90
4183;DHT22;2105;52.300;9.182;2023-02-03T02:31:58;8.20;99.90
4183;DHT22;2105;52.300;9.182;2023-02-03T02:34:36;8.20;99.90
4183;DHT22;2105;52.300;9.182;2023-02-03T02:37:10;8.10;99.90
4183;DHT22;2105;52.300;9.182;2023-02-03T02:39:45;8.10;99.90
4183;DHT22;2105;52.300;9.182;2023-02-03T02:42:15;8.10;99.90
4183;DHT22;2105;52.300;9.182;2023-02-03T02:44:49;8.10;99.90
4183;DHT22;2105;52.300;9.182;2023-02-03T02:47:19;8.10;99.90
4183;DHT22;2105;52.300;9.182;2023-02-03T02:49:53;8.10;99.90
4183;DHT22;2105;52.300;9.182;2023-02-03T02:52:23;8.10;99.90
4183;DHT22;2105;52.300;9.182;2023-02-03T02:54:54;8.20;99.90
4183;DHT22;2105;52.300;9.182;2023-02-03T02:57:23;8.20;99.90
4183;DHT22;2105;52.300;9.182;2023-02-03T02:59:52;8.20;99.90
4183;DHT22;2105;52.300;9.182;2023-02-03T03:02:21;8.20;99.90
4183;DHT22;2105;52.300;9.182;2023-02-03T03:04:48;8.20;99.90
4183;DHT22;2105;52.300;9.182;2023-02-03T03:07:20;8.20;99.90
4183;DHT22;2105;52.300;9.182;2023-02-03T03:09:50;8.20;99.90
4183;DHT22;2105;52.300;9.182;2023-02-03T03:12:20;8.20;99.90
4183;DHT22;2105;52.300;9.182;2023-02-03T03:14:50;8.20;99.90
4183;DHT22;2105;52.300;9.182;2023-02-03T03:17:22;8.20;99.90
4183;DHT22;2105;52.300;9.182;2023-02-03T03:19:53;8.20;99.90
4183;DHT22;2105;52.300;9.182;2023-02-03T03:22:23;8.20;99.90
4183;DHT22;2105;52.300;9.182;2023-02-03T03:24:56;8.20;99.90
4183;DHT22;2105;52.300;9.182;2023-02-03T03:27:27;8.20;99.90
4183;DHT22;2105;52.300;9.182;2023-02-03T03:29:56;8.20;99.90
4183;DHT22;2105;52.300;9.182;2023-02-03T03:32:25;8.20;99.90
4183;DHT22;2105;52.300;9.182;2023-02-03T03:34:53;8.20;99.90
4183;DHT22;2105;52.300;9.182;2023-02-03T03:37:26;8.20;99.90
4183;DHT22;2105;52.300;9.182;2023-02-03T03:39:56;8.20;99.90
4183;DHT22;2105;52.300;9.182;2023-02-03T03:42:26;8.20;99.90
4183;DHT22;2105;52.300;9.182;2023-02-03T03:44:58;8.20;99.90
4183;DHT22;2105;52.300;9.182;2023-02-03T03:47:30;8.20;99.90
4183;DHT22;2105;52.300;9.182;2023-02-03T03:50:01;8.20;99.90
4183;DHT22;2105;52.300;9.182;2023-02-03T03:52:31;8.20;99.90
4183;DHT22;2105;52.300;9.182;2023-02-03T03:55:00;8.20;99.90
4183;DHT22;2105;52.300;9.182;2023-02-03T03:57:30;8.20;99.90
4183;DHT22;2105;52.300;9.182;2023-02-03T04:00:01;8.20;99.90
4183;DHT22;2105;52.300;9.182;2023-02-03T04:02:29;8.20;99.90
4183;DHT22;2105;52.300;9.182;2023-02-03T04:04:59;8.20;99.90
4183;DHT22;2105;52.300;9.182;2023-02-03T04:07:36;8.20;99.90
4183;DHT22;2105;52.300;9.182;2023-02-03T04:10:08;8.20;99.90
4183;DHT22;2105;52.300;9.182;2023-02-03T04:12:36;8.20;99.90
4183;DHT22;2105;52.300;9.182;2023-02-03T04:15:03;8.20;99.90
4183;DHT22;2105;52.300;9.182;2023-02-03T04:17:31;8.20;99.90
4183;DHT22;2105;52.300;9.182;2023-02-03T04:20:00;8.20;99.90
4183;DHT22;2105;52.300;9.182;2023-02-03T04:22:27;8.20;99.90
4183;DHT22;2105;52.300;9.182;2023-02-03T04:24:54;8.20;99.90
4183;DHT22;2105;52.300;9.182;2023-02-03T04:27:23;8.20;99.90
4183;DHT22;2105;52.300;9.182;2023-02-03T04:29:50;8.20;99.90
4183;DHT22;2105;52.300;9.182;2023-02-03T04:32:16;8.20;99.90
4183;DHT22;2105;52.300;9.182;2023-02-03T04:34:45;8.30;99.90
4183;DHT22;2105;52.300;9.182;2023-02-03T04:37:12;8.30;99.90
4183;DHT22;2105;52.300;9.182;2023-02-03T04:39:38;8.30;99.90
4183;DHT22;2105;52.300;9.182;2023-02-03T04:42:05;8.30;99.90
4183;DHT22;2105;52.300;9.182;2023-02-03T04:44:32;8.30;99.90
4183;DHT22;2105;52.300;9.182;2023-02-03T04:46:58;8.30;99.90
4183;DHT22;2105;52.300;9.182;2023-02-03T04:49:25;8.30;99.90
4183;DHT22;2105;52.300;9.182;2023-02-03T04:51:53;8.30;99.90
4183;DHT22;2105;52.300;9.182;2023-02-03T04:54:20;8.30;99.90
4183;DHT22;2105;52.300;9.182;2023-02-03T04:56:46;8.30;99.90
4183;DHT22;2105;52.300;9.182;2023-02-03T04:59:13;8.30;99.90
4183;DHT22;2105;52.300;9.182;2023-02-03T05:01:40;8.30;99.90
4183;DHT22;2105;52.300;9.182;2023-02-03T05:04:06;8.30;99.90
4183;DHT22;2105;52.300;9.182;2023-02-03T05:06:33;8.30;99.90
4183;DHT22;2105;52.300;9.182;2023-02-03T05:09:02;8.30;99.90
4183;DHT22;2105;52.300;9.182;2023-02-03T05:11:29;8.40;99.90
4183;DHT22;2105;52.300;9.182;2023-02-03T05:13:56;8.40;99.90
4183;DHT22;2105;52.300;9.182;2023-02-03T05:16:23;8.40;99.90
4183;DHT22;2105;52.300;9.182;2023-02-03T05:18:49;8.30;99.90
4183;DHT22;2105;52.300;9.182;2023-02-03T05:21:16;8.30;99.90
4183;DHT22;2105;52.300;9.182;2023-02-03T05:23:43;8.40;99.90
4183;DHT22;2105;52.300;9.182;2023-02-03T05:26:11;8.40;99.90
4183;DHT22;2105;52.300;9.182;2023-02-03T05:28:38;8.30;99.90
4183;DHT22;2105;52.300;9.182;2023-02-03T05:31:05;8.40;99.90
4183;DHT22;2105;52.300;9.182;2023-02-03T05:33:31;8.40;99.90
4183;DHT22;2105;52.300;9.182;2023-02-03T05:35:58;8.40;99.90
4183;DHT22;2105;52.300;9.182;2023-02-03T05:38:25;8.40;99.90
4183;DHT22;2105;52.300;9.182;2023-02-03T05:40:51;8.40;99.90
4183;DHT22;2105;52.300;9.182;2023-02-03T05:43:37;8.30;99.90
4183;DHT22;2105;52.300;9.182;2023-02-03T05:46:05;8.30;99.90
4183;DHT22;2105;52.300;9.182;2023-02-03T05:48:33;8.30;99.90
4183;DHT22;2105;52.300;9.182;2023-02-03T05:50:59;8.30;99.90
4183;DHT22;2105;52.300;9.182;2023-02-03T05:53:26;8.30;99.90
4183;DHT22;2105;52.300;9.182;2023-02-03T05:55:53;8.40;99.90
4183;DHT22;2105;52.300;9.182;2023-02-03T05:58:20;8.40;99.90
4183;DHT22;2105;52.300;9.182;2023-02-03T06:00:48;8.40;99.90
4183;DHT22;2105;52.300;9.182;2023-02-03T06:03:14;8.40;99.90
4183;DHT22;2105;52.300;9.182;2023-02-03T06:05:41;8.30;99.90
4183;DHT22;2105;52.300;9.182;2023-02-03T06:08:08;8.30;99.90
4183;DHT22;2105;52.300;9.182;2023-02-03T06:10:35;8.20;99.90
4183;DHT22;2105;52.300;9.182;2023-02-03T06:13:08;8.20;99.90
4183;DHT22;2105;52.300;9.182;2023-02-03T06:15:35;8.20;99.90
4183;DHT22;2105;52.300;9.182;2023-02-03T06:18:03;8.20;99.90
4183;DHT22;2105;52.300;9.182;2023-02-03T06:20:30;8.10;99.90
4183;DHT22;2105;52.300;9.182;2023-02-03T06:22:56;8.10;99.90
4183;DHT22;2105;52.300;9.182;2023-02-03T06:25:23;8.10;99.90
4183;DHT22;2105;52.300;9.182;2023-02-03T06:27:50;8.00;99.90
4183;DHT22;2105;52.300;9.182;2023-02-03T06:30:17;8.00;99.90
4183;DHT22;2105;52.300;9.182;2023-02-03T06:32:44;8.00;99.90
4183;DHT22;2105;52.300;9.182;2023-02-03T06:35:12;8.00;99.90
4183;DHT22;2105;52.300;9.182;2023-02-03T06:37:39;7.90;99.90
4183;DHT22;2105;52.300;9.182;2023-02-03T06:40:06;7.90;99.90
4183;DHT22;2105;52.300;9.182;2023-02-03T06:42:33;7.90;99.90
4183;DHT22;2105;52.300;9.182;2023-02-03T06:45:00;7.90;99.90
4183;DHT22;2105;52.300;9.182;2023-02-03T06:47:27;7.90;99.90
4183;DHT22;2105;52.300;9.182;2023-02-03T06:49:53;7.90;99.90
4183;DHT22;2105;52.300;9.182;2023-02-03T06:52:21;7.90;99.90
4183;DHT22;2105;52.300;9.182;2023-02-03T06:54:48;7.90;99.90
4183;DHT22;2105;52.300;9.182;2023-02-03T06:57:15;7.90;99.90
4183;DHT22;2105;52.300;9.182;2023-02-03T06:59:41;7.90;99.90
4183;DHT22;2105;52.300;9.182;2023-02-03T07:02:09;7.80;99.90
4183;DHT22;2105;52.300;9.182;2023-02-03T07:04:36;7.80;99.90
4183;DHT22;2105;52.300;9.182;2023-02-03T07:07:03;7.80;99.90
4183;DHT22;2105;52.300;9.182;2023-02-03T07:09:32;7.80;99.90
4183;DHT22;2105;52.300;9.182;2023-02-03T07:11:58;7.80;99.90
4183;DHT22;2105;52.300;9.182;2023-02-03T07:14:25;7.80;99.90
4183;DHT22;2105;52.300;9.182;2023-02-03T07:16:52;7.80;99.90
4183;DHT22;2105;52.300;9.182;2023-02-03T07:19:19;7.80;99.90
4183;DHT22;2105;52.300;9.182;2023-02-03T07:21:45;7.80;99.90
4183;DHT22;2105;52.300;9.182;2023-02-03T07:24:12;7.70;99.90
4183;DHT22;2105;52.300;9.182;2023-02-03T07:26:40;7.70;99.90
4183;DHT22;2105;52.300;9.182;2023-02-03T07:29:07;7.70;99.90
4183;DHT22;2105;52.300;9.182;2023-02-03T07:31:34;7.70;99.90
4183;DHT22;2105;52.300;9.182;2023-02-03T07:34:01;7.70;99.90
4183;DHT22;2105;52.300;9.182;2023-02-03T07:36:27;7.70;99.90
4183;DHT22;2105;52.300;9.182;2023-02-03T07:38:54;7.70;99.90
4183;DHT22;2105;52.300;9.182;2023-02-03T07:41:21;7.70;99.90
4183;DHT22;2105;52.300;9.182;2023-02-03T07:43:49;7.70;99.90
4183;DHT22;2105;52.300;9.182;2023-02-03T07:46:16;7.70;99.90
4183;DHT22;2105;52.300;9.182;2023-02-03T07:48:42;7.80;99.90
4183;DHT22;2105;52.300;9.182;2023-02-03T07:51:09;7.70;99.90
4183;DHT22;2105;52.300;9.182;2023-02-03T07:53:36;7.70;99.90
4183;DHT22;2105;52.300;9.182;2023-02-03T07:56:04;7.80;99.90
4183;DHT22;2105;52.300;9.182;2023-02-03T07:58:31;7.80;99.90
4183;DHT22;2105;52.300;9.182;2023-02-03T08:00:59;7.80;99.90
4183;DHT22;2105;52.300;9.182;2023-02-03T08:03:26;7.80;99.90
4183;DHT22;2105;52.300;9.182;2023-02-03T08:05:52;7.80;99.90
4183;DHT22;2105;52.300;9.182;2023-02-03T08:08:19;7.80;99.90
4183;DHT22;2105;52.300;9.182;2023-02-03T08:10:46;7.80;99.90
4183;DHT22;2105;52.300;9.182;2023-02-03T08:13:12;7.80;99.90
4183;DHT22;2105;52.300;9.182;2023-02-03T08:15:39;7.80;99.90
4183;DHT22;2105;52.300;9.182;2023-02-03T08:18:07;7.80;99.90
4183;DHT22;2105;52.300;9.182;2023-02-03T08:20:34;7.80;99.90
4183;DHT22;2105;52.300;9.182;2023-02-03T08:23:00;7.90;99.90
4183;DHT22;2105;52.300;9.182;2023-02-03T08:25:27;7.90;99.90
4183;DHT22;2105;52.300;9.182;2023-02-03T08:27:54;7.90;99.90
4183;DHT22;2105;52.300;9.182;2023-02-03T08:30:21;7.90;99.90
4183;DHT22;2105;52.300;9.182;2023-02-03T08:32:48;8.00;99.90
4183;DHT22;2105;52.300;9.182;2023-02-03T08:35:17;8.00;99.90
4183;DHT22;2105;52.300;9.182;2023-02-03T08:37:43;8.00;99.90
4183;DHT22;2105;52.300;9.182;2023-02-03T08:40:11;8.10;99.90
4183;DHT22;2105;52.300;9.182;2023-02-03T08:42:37;8.10;99.90
4183;DHT22;2105;52.300;9.182;2023-02-03T08:45:05;8.10;99.90
4183;DHT22;2105;52.300;9.182;2023-02-03T08:47:32;8.10;99.90
4183;DHT22;2105;52.300;9.182;2023-02-03T08:50:01;8.10;99.90
4183;DHT22;2105;52.300;9.182;2023-02-03T08:52:29;8.20;99.90
4183;DHT22;2105;52.300;9.182;2023-02-03T08:54:56;8.20;99.90
4183;DHT22;2105;52.300;9.182;2023-02-03T08:57:22;8.20;99.90
4183;DHT22;2105;52.300;9.182;2023-02-03T08:59:49;8.20;99.90
4183;DHT22;2105;52.300;9.182;2023-02-03T09:02:18;8.20;99.90
4183;DHT22;2105;52.300;9.182;2023-02-03T09:04:45;8.30;99.90
4183;DHT22;2105;52.300;9.182;2023-02-03T09:07:13;8.30;99.90
4183;DHT22;2105;52.300;9.182;2023-02-03T09:09:42;8.30;99.90
4183;DHT22;2105;52.300;9.182;2023-02-03T09:12:09;8.40;99.90
4183;DHT22;2105;52.300;9.182;2023-02-03T09:14:37;8.40;99.90
4183;DHT22;2105;52.300;9.182;2023-02-03T09:17:04;8.40;99.90
4183;DHT22;2105;52.300;9.182;2023-02-03T09:19:32;8.40;99.90
4183;DHT22;2105;52.300;9.182;2023-02-03T09:21:59;8.40;99.90
4183;DHT22;2105;52.300;9.182;2023-02-03T09:24:26;8.50;99.90
4183;DHT22;2105;52.300;9.182;2023-02-03T09:26:54;8.50;99.90
4183;DHT22;2105;52.300;9.182;2023-02-03T09:29:22;8.50;99.90
4183;DHT22;2105;52.300;9.182;2023-02-03T09:31:49;8.60;99.90
4183;DHT22;2105;52.300;9.182;2023-02-03T09:34:17;8.60;99.90
4183;DHT22;2105;52.300;9.182;2023-02-03T09:36:45;8.60;99.90
4183;DHT22;2105;52.300;9.182;2023-02-03T09:39:11;8.60;99.90
4183;DHT22;2105;52.300;9.182;2023-02-03T09:42:06;8.70;99.90
4183;DHT22;2105;52.300;9.182;2023-02-03T09:44:40;8.70;99.90
4183;DHT22;2105;52.300;9.182;2023-02-03T09:47:13;8.70;99.90
4183;DHT22;2105;52.300;9.182;2023-02-03T09:49:42;8.60;99.90
4183;DHT22;2105;52.300;9.182;2023-02-03T09:52:14;8.60;99.90
4183;DHT22;2105;52.300;9.182;2023-02-03T09:54:49;8.50;99.90
4183;DHT22;2105;52.300;9.182;2023-02-03T09:57:21;8.50;99.90
4183;DHT22;2105;52.300;9.182;2023-02-03T09:59:49;8.50;99.90
4183;DHT22;2105;52.300;9.182;2023-02-03T10:02:34;8.40;99.90
4183;DHT22;2105;52.300;9.182;2023-02-03T10:05:13;8.40;99.90
4183;DHT22;2105;52.300;9.182;2023-02-03T10:07:48;8.40;99.90
4183;DHT22;2105;52.300;9.182;2023-02-03T10:13:00;8.40;99.90
4183;DHT22;2105;52.300;9.182;2023-02-03T10:15:47;8.30;99.90
4183;DHT22;2105;52.300;9.182;2023-02-03T10:18:19;8.30;99.90
4183;DHT22;2105;52.300;9.182;2023-02-03T10:20:49;8.30;99.90
4183;DHT22;2105;52.300;9.182;2023-02-03T10:23:21;8.30;99.90
4183;DHT22;2105;52.300;9.182;2023-02-03T10:25:51;8.30;99.90
4183;DHT22;2105;52.300;9.182;2023-02-03T10:28:23;8.30;99.90
4183;DHT22;2105;52.300;9.182;2023-02-03T10:30:54;8.30;99.90
4183;DHT22;2105;52.300;9.182;2023-02-03T10:33:24;8.30;99.90
4183;DHT22;2105;52.300;9.182;2023-02-03T10:35:52;8.30;99.90
4183;DHT22;2105;52.300;9.182;2023-02-03T10:38:31;8.30;99.90
4183;DHT22;2105;52.300;9.182;2023-02-03T10:41:00;8.40;99.90
4183;DHT22;2105;52.300;9.182;2023-02-03T10:43:30;8.40;99.90
4183;DHT22;2105;52.300;9.182;2023-02-03T10:46:15;8.40;99.90
4183;DHT22;2105;52.300;9.182;2023-02-03T10:48:42;8.30;99.90
4183;DHT22;2105;52.300;9.182;2023-02-03T10:51:17;8.30;99.90
4183;DHT22;2105;52.300;9.182;2023-02-03T10:53:44;8.40;99.90
4183;DHT22;2105;52.300;9.182;2023-02-03T10:56:13;8.40;99.90
4183;DHT22;2105;52.300;9.182;2023-02-03T10:58:47;8.40;99.90
4183;DHT22;2105;52.300;9.182;2023-02-03T11:01:16;8.40;99.90
4183;DHT22;2105;52.300;9.182;2023-02-03T11:03:56;8.40;99.90
4183;DHT22;2105;52.300;9.182;2023-02-03T11:06:23;8.40;99.90
4183;DHT22;2105;52.300;9.182;2023-02-03T11:08:51;8.40;99.90
4183;DHT22;2105;52.300;9.182;2023-02-03T11:11:23;8.40;99.90
4183;DHT22;2105;52.300;9.182;2023-02-03T11:14:09;8.40;99.90
4183;DHT22;2105;52.300;9.182;2023-02-03T11:16:36;8.40;99.90
4183;DHT22;2105;52.300;9.182;2023-02-03T11:19:04;8.50;99.90
4183;DHT22;2105;52.300;9.182;2023-02-03T11:21:41;8.50;99.90
4183;DHT22;2105;52.300;9.182;2023-02-03T11:24:15;8.60;99.90
4183;DHT22;2105;52.300;9.182;2023-02-03T11:26:48;8.60;99.90
4183;DHT22;2105;52.300;9.182;2023-02-03T11:29:20;8.60;99.90
4183;DHT22;2105;52.300;9.182;2023-02-03T11:31:50;8.70;99.90
4183;DHT22;2105;52.300;9.182;2023-02-03T11:34:20;8.70;99.90
4183;DHT22;2105;52.300;9.182;2023-02-03T11:36:49;8.80;99.90
4183;DHT22;2105;52.300;9.182;2023-02-03T11:39:23;8.80;99.90
4183;DHT22;2105;52.300;9.182;2023-02-03T11:41:51;8.80;99.90
4183;DHT22;2105;52.300;9.182;2023-02-03T11:44:21;8.80;99.90
4183;DHT22;2105;52.300;9.182;2023-02-03T11:46:52;8.70;99.90
4183;DHT22;2105;52.300;9.182;2023-02-03T11:49:44;8.80;99.90
4183;DHT22;2105;52.300;9.182;2023-02-03T11:52:27;8.70;99.90
4183;DHT22;2105;52.300;9.182;2023-02-03T11:55:03;8.80;99.90
4183;DHT22;2105;52.300;9.182;2023-02-03T11:57:38;8.70;99.90
4183;DHT22;2105;52.300;9.182;2023-02-03T12:00:21;8.80;99.90
4183;DHT22;2105;52.300;9.182;2023-02-03T12:06:04;8.80;99.90
4183;DHT22;2105;52.300;9.182;2023-02-03T12:11:33;8.90;99.90
4183;DHT22;2105;52.300;9.182;2023-02-03T12:14:22;8.90;99.90
4183;DHT22;2105;52.300;9.182;2023-02-03T12:17:07;8.90;99.90
4183;DHT22;2105;52.300;9.182;2023-02-03T12:19:46;8.90;99.90
4183;DHT22;2105;52.300;9.182;2023-02-03T12:22:18;8.90;99.90
4183;DHT22;2105;52.300;9.182;2023-02-03T12:24:56;9.00;99.90
4183;DHT22;2105;52.300;9.182;2023-02-03T12:27:33;9.00;99.90
4183;DHT22;2105;52.300;9.182;2023-02-03T12:30:04;9.00;99.90
4183;DHT22;2105;52.300;9.182;2023-02-03T12:32:39;9.00;99.90
4183;DHT22;2105;52.300;9.182;2023-02-03T12:35:14;9.00;99.90
4183;DHT22;2105;52.300;9.182;2023-02-03T12:37:47;9.10;99.90
4183;DHT22;2105;52.300;9.182;2023-02-03T12:40:19;9.10;99.90
4183;DHT22;2105;52.300;9.182;2023-02-03T12:42:52;9.10;99.90
4183;DHT22;2105;52.300;9.182;2023-02-03T12:45:23;9.20;32.50
4183;DHT22;2105;52.300;9.182;2023-02-03T12:47:55;9.30;1.00
4183;DHT22;2105;52.300;9.182;2023-02-03T12:50:28;9.40;1.00
4183;DHT22;2105;52.300;9.182;2023-02-03T12:52:59;9.40;1.00
4183;DHT22;2105;52.300;9.182;2023-02-03T12:55:33;9.40;99.90
4183;DHT22;2105;52.300;9.182;2023-02-03T12:58:04;9.30;27.00
4183;DHT22;2105;52.300;9.182;2023-02-03T13:00:39;9.30;99.90
4183;DHT22;2105;52.300;9.182;2023-02-03T13:03:17;9.30;52.10
4183;DHT22;2105;52.300;9.182;2023-02-03T13:05:49;9.30;1.00
4183;DHT22;2105;52.300;9.182;2023-02-03T13:08:22;9.30;99.90
4183;DHT22;2105;52.300;9.182;2023-02-03T13:10:54;9.40;38.90
4183;DHT22;2105;52.300;9.182;2023-02-03T13:13:28;9.40;99.90
4183;DHT22;2105;52.300;9.182;2023-02-03T13:15:59;9.40;1.00
4183;DHT22;2105;52.300;9.182;2023-02-03T13:18:32;9.40;94.10
4183;DHT22;2105;52.300;9.182;2023-02-03T13:21:00;9.50;1.00
4183;DHT22;2105;52.300;9.182;2023-02-03T13:23:26;9.50;1.00
4183;DHT22;2105;52.300;9.182;2023-02-03T13:26:14;9.60;1.00
4183;DHT22;2105;52.300;9.182;2023-02-03T13:28:54;9.70;1.00
4183;DHT22;2105;52.300;9.182;2023-02-03T13:31:34;9.90;1.00
4183;DHT22;2105;52.300;9.182;2023-02-03T13:34:21;9.90;1.00
4183;DHT22;2105;52.300;9.182;2023-02-03T13:37:08;10.00;1.00
4183;DHT22;2105;52.300;9.182;2023-02-03T13:39:51;10.00;99.90
4183;DHT22;2105;52.300;9.182;2023-02-03T13:42:23;10.00;99.90
4183;DHT22;2105;52.300;9.182;2023-02-03T13:44:52;10.10;1.00
4183;DHT22;2105;52.300;9.182;2023-02-03T13:47:25;10.00;99.90
4183;DHT22;2105;52.300;9.182;2023-02-03T13:49:56;9.80;99.90
4183;DHT22;2105;52.300;9.182;2023-02-03T13:52:28;9.70;99.90
4183;DHT22;2105;52.300;9.182;2023-02-03T13:54:58;9.60;99.90
4183;DHT22;2105;52.300;9.182;2023-02-03T13:57:31;9.60;1.00
4183;DHT22;2105;52.300;9.182;2023-02-03T14:00:00;9.50;99.90
4183;DHT22;2105;52.300;9.182;2023-02-03T14:02:41;9.50;99.90
4183;DHT22;2105;52.300;9.182;2023-02-03T14:08:47;9.40;99.90
4183;DHT22;2105;52.300;9.182;2023-02-03T14:11:38;9.30;1.00
4183;DHT22;2105;52.300;9.182;2023-02-03T14:14:39;9.30;1.00
4183;DHT22;2105;52.300;9.182;2023-02-03T14:20:43;9.20;1.00
4183;DHT22;2105;52.300;9.182;2023-02-03T14:23:17;9.10;1.00
4183;DHT22;2105;52.300;9.182;2023-02-03T14:25:51;9.10;1.00
4183;DHT22;2105;52.300;9.182;2023-02-03T14:28:22;9.10;1.00
4183;DHT22;2105;52.300;9.182;2023-02-03T14:31:11;9.10;1.00
4183;DHT22;2105;52.300;9.182;2023-02-03T14:33:57;9.10;1.00
4183;DHT22;2105;52.300;9.182;2023-02-03T14:36:28;9.00;1.00
4183;DHT22;2105;52.300;9.182;2023-02-03T14:38:58;9.00;1.00
4183;DHT22;2105;52.300;9.182;2023-02-03T14:41:32;8.90;1.00
4183;DHT22;2105;52.300;9.182;2023-02-03T14:44:07;8.90;1.00
4183;DHT22;2105;52.300;9.182;2023-02-03T14:46:49;8.80;99.90
4183;DHT22;2105;52.300;9.182;2023-02-03T14:49:36;8.80;99.90
4183;DHT22;2105;52.300;9.182;2023-02-03T14:52:17;8.80;99.90
4183;DHT22;2105;52.300;9.182;2023-02-03T14:55:04;8.70;99.90
4183;DHT22;2105;52.300;9.182;2023-02-03T14:57:39;8.70;1.00
4183;DHT22;2105;52.300;9.182;2023-02-03T15:00:26;8.70;99.90
4183;DHT22;2105;52.300;9.182;2023-02-03T15:03:24;8.70;99.90
4183;DHT22;2105;52.300;9.182;2023-02-03T15:05:54;8.70;99.90
4183;DHT22;2105;52.300;9.182;2023-02-03T15:08:42;8.60;99.90
4183;DHT22;2105;52.300;9.182;2023-02-03T15:11:27;8.60;99.90
4183;DHT22;2105;52.300;9.182;2023-02-03T15:16:41;8.40;99.90
4183;DHT22;2105;52.300;9.182;2023-02-03T15:19:16;8.40;99.90
4183;DHT22;2105;52.300;9.182;2023-02-03T15:21:43;8.40;99.90
4183;DHT22;2105;52.300;9.182;2023-02-03T15:24:13;8.30;99.90
4183;DHT22;2105;52.300;9.182;2023-02-03T15:26:45;8.30;99.90
4183;DHT22;2105;52.300;9.182;2023-02-03T15:29:25;8.20;1.00
4183;DHT22;2105;52.300;9.182;2023-02-03T15:32:01;8.20;1.00
4183;DHT22;2105;52.300;9.182;2023-02-03T15:34:32;8.20;1.00
4183;DHT22;2105;52.300;9.182;2023-02-03T15:37:05;8.20;1.00
4183;DHT22;2105;52.300;9.182;2023-02-03T15:39:38;8.20;1.00
4183;DHT22;2105;52.300;9.182;2023-02-03T15:42:13;8.20;1.00
4183;DHT22;2105;52.300;9.182;2023-02-03T15:44:46;8.10;1.00
4183;DHT22;2105;52.300;9.182;2023-02-03T15:47:22;8.10;1.00
4183;DHT22;2105;52.300;9.182;2023-02-03T15:49:59;8.10;1.00
4183;DHT22;2105;52.300;9.182;2023-02-03T15:52:28;8.10;1.00
4183;DHT22;2105;52.300;9.182;2023-02-03T15:55:07;8.10;1.00
4183;DHT22;2105;52.300;9.182;2023-02-03T15:57:36;8.10;1.00
4183;DHT22;2105;52.300;9.182;2023-02-03T16:00:27;8.10;1.00
4183;DHT22;2105;52.300;9.182;2023-02-03T16:02:54;8.10;1.00
4183;DHT22;2105;52.300;9.182;2023-02-03T16:05:25;8.00;1.00
4183;DHT22;2105;52.300;9.182;2023-02-03T16:07:52;7.90;1.00
4183;DHT22;2105;52.300;9.182;2023-02-03T16:10:25;7.90;1.00
4183;DHT22;2105;52.300;9.182;2023-02-03T16:13:13;8.00;1.00
4183;DHT22;2105;52.300;9.182;2023-02-03T16:15:59;8.00;1.00
4183;DHT22;2105;52.300;9.182;2023-02-03T16:18:27;8.00;1.00
4183;DHT22;2105;52.300;9.182;2023-02-03T16:20:54;7.90;1.00
4183;DHT22;2105;52.300;9.182;2023-02-03T16:23:22;7.90;1.00
4183;DHT22;2105;52.300;9.182;2023-02-03T16:26:03;7.90;18.00
4183;DHT22;2105;52.300;9.182;2023-02-03T16:28:29;7.90;34.70
4183;DHT22;2105;52.300;9.182;2023-02-03T16:31:17;7.80;99.90
4183;DHT22;2105;52.300;9.182;2023-02-03T16:34:09;7.80;99.90
4183;DHT22;2105;52.300;9.182;2023-02-03T16:36:55;7.80;55.60
4183;DHT22;2105;52.300;9.182;2023-02-03T16:39:39;7.80;99.10
4183;DHT22;2105;52.300;9.182;2023-02-03T16:42:23;7.80;73.90
4183;DHT22;2105;52.300;9.182;2023-02-03T16:45:13;7.80;1.00
4183;DHT22;2105;52.300;9.182;2023-02-03T16:47:59;7.80;29.60
4183;DHT22;2105;52.300;9.182;2023-02-03T16:50:44;7.80;1.00
4183;DHT22;2105;52.300;9.182;2023-02-03T16:53:21;7.80;1.00
4183;DHT22;2105;52.300;9.182;2023-02-03T16:55:50;7.70;99.90
4183;DHT22;2105;52.300;9.182;2023-02-03T16:58:17;7.70;99.90
4183;DHT22;2105;52.300;9.182;2023-02-03T17:00:45;7.70;99.90
4183;DHT22;2105;52.300;9.182;2023-02-03T17:03:16;7.60;99.90
4183;DHT22;2105;52.300;9.182;2023-02-03T17:05:44;7.60;99.90
4183;DHT22;2105;52.300;9.182;2023-02-03T17:08:12;7.60;99.90